Time;durP1;ratioP1;P1;durP2;ratioP2;P2;SDS_P1;SDS_P2;PMS_P1;PMS_P2;Temp;Humidity;BMP_temperature;BMP_pressure;BME280_temperature;BME280_humidity;BME280_pressure;Samples;Min_cycle;Max_cycle;Signal;HPM_P1;HPM_P2
2023/09/09 00:01:05;;;;;;;;;;;;;;;22.34;57.45;101415.16;4171574;28;20027;-65
2023/09/09 00:03:08;;;;;;;;;;;;;;;22.33;57.76;101418.16;4171930;28;20032;-64
2023/09/09 00:05:10;;;;;;;;;;;;;;;22.30;57.75;101408.44;4170995;28;20019;-64
2023/09/09 00:07:12;;;;;;;;;;;;;;;22.28;57.80;101405.91;4169552;28;19967;-65
2023/09/09 00:09:15;;;;;;;;;;;;;;;22.26;57.72;101401.72;4170914;28;20019;-64
2023/09/09 00:11:17;;;;;;;;;;;;;;;22.25;57.91;101405.56;4171198;28;20011;-64
2023/09/09 00:13:19;;;;;;;;;;;;;;;22.21;57.69;101407.94;4171140;28;20141;-64
2023/09/09 00:15:20;;;;;;;;;;;;;;;22.19;58.14;101406.50;4171256;28;20343;-64
2023/09/09 00:17:22;;;;;;;;;;;;;;;22.15;58.00;101406.16;4170869;28;20015;-64
2023/09/09 00:19:24;;;;;;;;;;;;;;;22.13;58.16;101406.38;4170636;28;20016;-64
2023/09/09 00:21:26;;;;;;;;;;;;;;;22.09;58.07;101404.34;4177136;28;20011;-64
2023/09/09 00:23:29;;;;;;;;;;;;;;;22.08;58.35;101408.16;4170904;28;20434;-64
2023/09/09 00:25:31;;;;;;;;;;;;;;;22.06;58.39;101402.06;4171489;28;20027;-64
2023/09/09 00:27:33;;;;;;;;;;;;;;;22.04;58.50;101404.25;4171063;28;20367;-65
2023/09/09 00:29:35;;;;;;;;;;;;;;;22.01;58.44;101405.53;4170645;28;20035;-64
2023/09/09 00:31:36;;;;;;;;;;;;;;;21.99;58.59;101402.19;4171495;28;20019;-64
2023/09/09 00:33:40;;;;;;;;;;;;;;;21.98;58.76;101399.69;4171279;28;20015;-64
2023/09/09 00:35:41;;;;;;;;;;;;;;;21.95;58.62;101399.06;4167634;28;20031;-63
2023/09/09 00:37:44;;;;;;;;;;;;;;;21.93;58.80;101395.72;4170437;28;20019;-64
2023/09/09 00:39:47;;;;;;;;;;;;;;;21.91;58.68;101399.78;4186296;28;20027;-64
2023/09/09 00:41:49;;;;;;;;;;;;;;;21.89;58.82;101407.44;4169378;28;20024;-65
2023/09/09 00:43:53;;;;;;;;;;;;;;;21.87;58.88;101404.09;4171547;28;20012;-63
2023/09/09 00:45:56;;;;;;;;;;;;;;;21.84;59.02;101412.81;4177461;28;20023;-63
2023/09/09 00:47:58;;;;;;;;;;;;;;;21.82;58.79;101406.69;4172248;28;20023;-64
2023/09/09 00:50:00;;;;;;;;;;;;;;;21.80;58.96;101406.91;4169638;28;20017;-63
2023/09/09 00:52:02;;;;;;;;;;;;;;;21.78;59.00;101409.91;4170483;28;19971;-63
2023/09/09 00:54:07;;;;;;;;;;;;;;;21.76;59.08;101405.75;4171121;28;20427;-65
2023/09/09 00:56:09;;;;;;;;;;;;;;;21.74;59.08;101410.63;4175015;28;20529;-63
2023/09/09 00:58:11;;;;;;;;;;;;;;;21.71;59.27;101405.63;4176744;28;20051;-64
2023/09/09 01:00:17;;;;;;;;;;;;;;;21.68;59.42;101406.09;4171080;28;20032;-64
2023/09/09 01:02:18;;;;;;;;;;;;;;;21.65;59.45;101403.81;4186091;28;20023;-63
2023/09/09 01:04:21;;;;;;;;;;;;;;;21.62;59.46;101405.09;4170666;28;20021;-63
2023/09/09 01:06:23;;;;;;;;;;;;;;;21.60;59.59;101402.59;4171215;28;20020;-65
2023/09/09 01:08:25;;;;;;;;;;;;;;;21.58;59.59;101398.38;4174476;28;20023;-64
2023/09/09 01:10:27;;;;;;;;;;;;;;;21.53;59.49;101396.34;4188673;28;20008;-63
2023/09/09 01:12:29;;;;;;;;;;;;;;;21.52;59.60;101400.19;4173447;28;20023;-64
2023/09/09 01:14:31;;;;;;;;;;;;;;;21.49;59.92;101394.28;4179915;28;20012;-65
2023/09/09 01:16:33;;;;;;;;;;;;;;;21.45;59.70;101399.38;4180059;28;20019;-64
2023/09/09 01:18:36;;;;;;;;;;;;;;;21.44;59.84;101394.97;4180223;28;19956;-64
2023/09/09 01:20:39;;;;;;;;;;;;;;;21.42;60.05;101389.69;4172424;28;20012;-64
2023/09/09 01:22:44;;;;;;;;;;;;;;;21.41;60.06;101395.44;4179929;28;19979;-63
2023/09/09 01:24:46;;;;;;;;;;;;;;;21.39;60.04;101392.94;4179650;28;20390;-64
2023/09/09 01:26:50;;;;;;;;;;;;;;;21.36;60.17;101390.66;4174268;28;20371;-63
2023/09/09 01:28:53;;;;;;;;;;;;;;;21.34;60.26;101387.28;4173339;28;20450;-63
2023/09/09 01:30:56;;;;;;;;;;;;;;;21.34;60.39;101391.94;4173482;28;20004;-64
2023/09/09 01:32:58;;;;;;;;;;;;;;;21.30;60.42;101385.25;4173969;28;20319;-65
2023/09/09 01:35:04;;;;;;;;;;;;;;;21.28;60.35;101385.47;4188837;28;20014;-64
2023/09/09 01:37:07;;;;;;;;;;;;;;;21.26;60.49;101384.03;4173583;28;20020;-64
2023/09/09 01:39:11;;;;;;;;;;;;;;;21.22;60.36;101379.00;4188828;28;20034;-64
2023/09/09 01:41:13;;;;;;;;;;;;;;;21.21;60.67;101377.31;4188609;28;20015;-66
2023/09/09 01:43:15;;;;;;;;;;;;;;;21.19;60.48;101373.97;4188376;28;20055;-64
2023/09/09 01:45:17;;;;;;;;;;;;;;;21.17;60.77;101384.34;4180401;28;20020;-63
2023/09/09 01:47:20;;;;;;;;;;;;;;;21.15;60.73;101378.25;4179563;28;20036;-63
2023/09/09 01:49:23;;;;;;;;;;;;;;;21.14;60.65;101382.06;4172316;28;20007;-62
2023/09/09 01:51:26;;;;;;;;;;;;;;;21.12;60.85;101378.72;4171135;28;20028;-64
2023/09/09 01:53:28;;;;;;;;;;;;;;;21.11;61.03;101382.53;4173222;28;19956;-63
2023/09/09 01:55:31;;;;;;;;;;;;;;;21.10;61.17;101393.75;4172913;28;20365;-63
2023/09/09 01:57:36;;;;;;;;;;;;;;;21.10;61.05;101382.75;4179048;28;20115;-63
2023/09/09 01:59:38;;;;;;;;;;;;;;;21.08;61.09;101377.50;4173822;28;20354;-63
2023/09/09 02:01:40;;;;;;;;;;;;;;;21.06;61.12;101390.63;4178386;28;20027;-62
2023/09/09 02:03:45;;;;;;;;;;;;;;;21.05;61.13;101378.81;4173985;28;20008;-63
2023/09/09 02:05:47;;;;;;;;;;;;;;;21.04;61.20;101381.78;4188473;28;20007;-63
2023/09/09 02:07:51;;;;;;;;;;;;;;;21.02;61.38;101384.78;4187946;28;20741;-61
2023/09/09 02:09:52;;;;;;;;;;;;;;;21.01;61.41;101374.03;4171434;28;20020;-63
2023/09/09 02:11:56;;;;;;;;;;;;;;;20.98;61.37;101380.78;4188916;28;20032;-62
2023/09/09 02:13:58;;;;;;;;;;;;;;;20.96;61.46;101376.63;4172783;28;19972;-63
2023/09/09 02:16:04;;;;;;;;;;;;;;;20.95;61.46;101372.19;4178852;28;20379;-64
2023/09/09 02:18:06;;;;;;;;;;;;;;;20.92;61.48;101378.97;4172786;28;20007;-65
2023/09/09 02:20:09;;;;;;;;;;;;;;;20.90;61.45;101378.38;4173216;28;20676;-65
2023/09/09 02:22:10;;;;;;;;;;;;;;;20.89;61.59;101379.44;4172648;28;20004;-65
2023/09/09 02:24:12;;;;;;;;;;;;;;;20.87;61.60;101376.91;4188409;28;20006;-66
2023/09/09 02:26:15;;;;;;;;;;;;;;;20.86;61.69;101378.00;4172819;28;20031;-65
2023/09/09 02:28:19;;;;;;;;;;;;;;;20.86;61.59;101377.16;4188148;28;20498;-65
2023/09/09 02:30:21;;;;;;;;;;;;;;;20.83;61.73;101381.22;4170970;28;20032;-65
2023/09/09 02:32:23;;;;;;;;;;;;;;;20.81;61.89;101379.75;4178508;28;20011;-65
2023/09/09 02:34:26;;;;;;;;;;;;;;;20.80;61.82;101376.19;4187017;28;20016;-65
2023/09/09 02:36:28;;;;;;;;;;;;;;;20.81;62.04;101371.53;4172201;28;20023;-65
2023/09/09 02:38:31;;;;;;;;;;;;;;;20.78;62.13;101370.06;4172547;28;20012;-65
2023/09/09 02:40:33;;;;;;;;;;;;;;;20.76;62.07;101366.72;4172338;28;20835;-65
2023/09/09 02:42:35;;;;;;;;;;;;;;;20.76;62.03;101361.22;4171121;28;20016;-65
2023/09/09 02:44:37;;;;;;;;;;;;;;;20.75;62.21;101354.03;4172292;28;20378;-64
2023/09/09 02:46:39;;;;;;;;;;;;;;;20.75;62.14;101367.78;4172362;28;20584;-64
2023/09/09 02:48:42;;;;;;;;;;;;;;;20.74;62.09;101362.53;4172546;28;20019;-64
2023/09/09 02:50:44;;;;;;;;;;;;;;;20.74;62.20;101365.28;4171531;28;20468;-65
2023/09/09 02:52:48;;;;;;;;;;;;;;;20.73;62.13;101369.91;4187506;28;20011;-64
2023/09/09 02:54:50;;;;;;;;;;;;;;;20.72;62.27;101367.41;4186082;28;19933;-64
2023/09/09 02:56:53;;;;;;;;;;;;;;;20.69;62.16;101358.56;4171717;28;20019;-64
2023/09/09 02:58:55;;;;;;;;;;;;;;;20.67;62.09;101362.59;4186749;28;20043;-64
2023/09/09 03:01:04;;;;;;;;;;;;;;;20.64;62.01;101358.44;4171454;28;20032;-64
2023/09/09 03:03:08;;;;;;;;;;;;;;;20.64;62.24;101361.16;4187506;28;20466;-64
2023/09/09 03:05:10;;;;;;;;;;;;;;;20.64;62.28;101365.78;4170497;28;20020;-64
2023/09/09 03:07:12;;;;;;;;;;;;;;;20.62;62.50;101371.47;4187020;28;20023;-64
2023/09/09 03:09:14;;;;;;;;;;;;;;;20.61;62.20;101367.09;4172605;28;20443;-64
2023/09/09 03:11:16;;;;;;;;;;;;;;;20.60;62.41;101362.66;4172628;28;20042;-63
2023/09/09 03:13:19;;;;;;;;;;;;;;;20.57;62.33;101360.38;4172666;28;19924;-63
2023/09/09 03:15:21;;;;;;;;;;;;;;;20.57;62.28;101367.78;4172082;28;19978;-63
2023/09/09 03:17:25;;;;;;;;;;;;;;;20.54;62.39;101371.78;4172394;28;20027;-63
2023/09/09 03:19:27;;;;;;;;;;;;;;;20.53;62.57;101367.38;4171838;28;20016;-63
2023/09/09 03:21:31;;;;;;;;;;;;;;;20.51;62.49;101367.59;4172360;28;20040;-63
2023/09/09 03:23:33;;;;;;;;;;;;;;;20.49;62.73;101369.75;4171934;28;20015;-63
2023/09/09 03:25:35;;;;;;;;;;;;;;;20.48;62.80;101369.97;4186961;28;20015;-63
2023/09/09 03:27:37;;;;;;;;;;;;;;;20.46;62.77;101372.94;4170954;28;20443;-63
2023/09/09 03:29:40;;;;;;;;;;;;;;;20.44;62.81;101372.34;4169116;28;20483;-63
2023/09/09 03:31:42;;;;;;;;;;;;;;;20.43;62.94;101365.16;4172057;28;20023;-63
2023/09/09 03:33:46;;;;;;;;;;;;;;;20.40;62.99;101364.78;4170439;28;20023;-63
2023/09/09 03:35:48;;;;;;;;;;;;;;;20.39;63.05;101366.69;4170329;28;19933;-63
2023/09/09 03:37:50;;;;;;;;;;;;;;;20.37;63.31;101371.56;4186128;28;20104;-63
2023/09/09 03:39:52;;;;;;;;;;;;;;;20.34;63.16;101358.28;4170173;28;20124;-63
2023/09/09 03:41:54;;;;;;;;;;;;;;;20.34;63.00;101372.00;4171968;28;20020;-64
2023/09/09 03:43:56;;;;;;;;;;;;;;;20.32;63.08;101368.66;4177550;28;20050;-63
2023/09/09 03:45:58;;;;;;;;;;;;;;;20.31;63.02;101372.47;4171393;28;20080;-63
2023/09/09 03:48:00;;;;;;;;;;;;;;;20.29;63.27;101374.59;4171651;28;20025;-63
2023/09/09 03:50:05;;;;;;;;;;;;;;;20.29;63.29;101377.34;4169919;28;20039;-63
2023/09/09 03:52:07;;;;;;;;;;;;;;;20.27;63.31;101377.56;4171350;28;20024;-63
2023/09/09 03:54:08;;;;;;;;;;;;;;;20.26;63.20;101378.63;4171504;28;20015;-63
2023/09/09 03:56:10;;;;;;;;;;;;;;;20.26;63.31;101386.03;4186494;28;19976;-63
2023/09/09 03:58:12;;;;;;;;;;;;;;;20.23;62.94;101375.50;4177587;28;20027;-63
2023/09/09 04:00:15;;;;;;;;;;;;;;;20.22;63.35;101382.03;4177626;28;20016;-63
2023/09/09 04:02:17;;;;;;;;;;;;;;;20.19;63.43;101382.50;4177067;28;20397;-63
2023/09/09 04:04:19;;;;;;;;;;;;;;;20.17;63.69;101377.22;4176577;28;20044;-63
2023/09/09 04:06:24;;;;;;;;;;;;;;;20.14;63.62;101378.53;4177713;28;20048;-63
2023/09/09 04:08:28;;;;;;;;;;;;;;;20.13;63.66;101382.34;4169740;28;20023;-63
2023/09/09 04:10:30;;;;;;;;;;;;;;;20.13;63.50;101378.75;4185004;28;20008;-63
2023/09/09 04:12:32;;;;;;;;;;;;;;;20.10;63.46;101380.03;4170590;28;20016;-63
2023/09/09 04:14:34;;;;;;;;;;;;;;;20.07;63.58;101374.19;4171387;28;20032;-63
2023/09/09 04:16:36;;;;;;;;;;;;;;;20.04;63.87;101380.09;4170170;28;20414;-63
2023/09/09 04:18:38;;;;;;;;;;;;;;;20.02;63.71;101377.59;4171726;28;20435;-63
2023/09/09 04:20:40;;;;;;;;;;;;;;;20.01;63.96;101381.38;4170747;28;20770;-63
2023/09/09 04:22:44;;;;;;;;;;;;;;;20.00;63.79;101379.72;4177132;28;20023;-63
2023/09/09 04:24:45;;;;;;;;;;;;;;;19.99;63.85;101375.31;4185604;28;20016;-64
2023/09/09 04:26:47;;;;;;;;;;;;;;;19.97;63.67;101377.44;4185203;28;20012;-64
2023/09/09 04:28:49;;;;;;;;;;;;;;;19.95;63.83;101376.81;4169553;28;20013;-64
2023/09/09 04:30:51;;;;;;;;;;;;;;;19.93;64.04;101378.94;4176083;28;20032;-63
2023/09/09 04:32:54;;;;;;;;;;;;;;;19.92;64.19;101380.00;4171275;28;20016;-64
2023/09/09 04:34:57;;;;;;;;;;;;;;;19.91;64.00;101378.34;4171441;28;20033;-64
2023/09/09 04:36:59;;;;;;;;;;;;;;;19.90;64.01;101379.38;4185173;28;19929;-64
2023/09/09 04:39:03;;;;;;;;;;;;;;;19.89;64.12;101377.69;4169675;28;20367;-63
2023/09/09 04:41:05;;;;;;;;;;;;;;;19.88;63.98;101370.56;4171955;28;20011;-64
2023/09/09 04:43:07;;;;;;;;;;;;;;;19.87;64.00;101372.44;4174734;28;20457;-64
2023/09/09 04:45:10;;;;;;;;;;;;;;;19.87;64.16;101377.09;4178939;28;20011;-64
2023/09/09 04:47:12;;;;;;;;;;;;;;;19.86;64.13;101370.78;4187047;28;20032;-64
2023/09/09 04:49:17;;;;;;;;;;;;;;;19.85;64.49;101374.56;4174320;28;20450;-64
2023/09/09 04:51:19;;;;;;;;;;;;;;;19.84;64.41;101381.09;4188681;28;20015;-64
2023/09/09 04:53:21;;;;;;;;;;;;;;;19.85;64.66;101379.22;4172613;28;20016;-63
2023/09/09 04:55:25;;;;;;;;;;;;;;;19.84;64.52;101375.63;4189132;28;20031;-63
2023/09/09 04:57:27;;;;;;;;;;;;;;;19.83;64.25;101373.97;4172846;28;19925;-64
2023/09/09 04:59:29;;;;;;;;;;;;;;;19.84;64.54;101374.78;4179972;28;20027;-64
2023/09/09 05:01:31;;;;;;;;;;;;;;;19.82;64.62;101377.75;4173206;28;20011;-64
2023/09/09 05:03:32;;;;;;;;;;;;;;;19.80;64.33;101377.97;4172491;28;20012;-64
2023/09/09 05:05:34;;;;;;;;;;;;;;;19.80;64.60;101369.75;4180138;28;20016;-64
2023/09/09 05:07:37;;;;;;;;;;;;;;;19.81;64.69;101381.53;4174048;28;20369;-63
2023/09/09 05:09:41;;;;;;;;;;;;;;;19.82;64.86;101374.19;4189378;28;20027;-64
2023/09/09 05:11:44;;;;;;;;;;;;;;;19.83;64.86;101373.09;4173836;28;20015;-64
2023/09/09 05:13:46;;;;;;;;;;;;;;;19.85;65.17;101379.22;4179931;28;20020;-64
2023/09/09 05:15:48;;;;;;;;;;;;;;;19.86;65.03;101373.53;4188251;28;20022;-64
2023/09/09 05:17:50;;;;;;;;;;;;;;;19.89;65.41;101374.94;4189133;28;19963;-63
2023/09/09 05:19:53;;;;;;;;;;;;;;;19.89;65.23;101374.94;4179430;28;20011;-64
2023/09/09 05:21:55;;;;;;;;;;;;;;;19.90;64.88;101384.88;4189116;28;20016;-64
2023/09/09 05:23:57;;;;;;;;;;;;;;;19.93;65.48;101384.41;4173457;28;20027;-63
2023/09/09 05:26:00;;;;;;;;;;;;;;;19.94;65.24;101386.09;4174326;28;20052;-64
2023/09/09 05:28:03;;;;;;;;;;;;;;;19.96;65.11;101386.72;4173696;28;20023;-63
2023/09/09 05:30:06;;;;;;;;;;;;;;;19.98;65.20;101381.84;4173812;28;20044;-63
2023/09/09 05:32:07;;;;;;;;;;;;;;;19.99;65.07;101387.09;4178515;28;20023;-63
2023/09/09 05:34:10;;;;;;;;;;;;;;;20.03;65.16;101381.16;4172180;28;20039;-63
2023/09/09 05:36:12;;;;;;;;;;;;;;;20.04;65.12;101386.41;4179756;28;20031;-64
2023/09/09 05:38:14;;;;;;;;;;;;;;;20.06;65.05;101384.31;4188552;28;20032;-63
2023/09/09 05:40:16;;;;;;;;;;;;;;;20.10;65.13;101382.78;4187286;28;20051;-63
2023/09/09 05:42:17;;;;;;;;;;;;;;;20.12;65.01;101383.38;4171460;28;20008;-63
2023/09/09 05:44:21;;;;;;;;;;;;;;;20.13;65.13;101387.81;4171336;28;20025;-64
2023/09/09 05:46:22;;;;;;;;;;;;;;;20.16;65.09;101387.38;4173352;28;20023;-63
2023/09/09 05:48:24;;;;;;;;;;;;;;;20.20;65.14;101393.22;4188771;28;20019;-64
2023/09/09 05:50:26;;;;;;;;;;;;;;;20.23;65.07;101386.47;4171049;28;20019;-64
2023/09/09 05:52:29;;;;;;;;;;;;;;;20.26;64.88;101392.34;4187201;28;20024;-64
2023/09/09 05:54:31;;;;;;;;;;;;;;;20.30;65.08;101390.00;4188489;28;20447;-63
2023/09/09 05:56:33;;;;;;;;;;;;;;;20.32;65.13;101387.88;4171786;28;20024;-63
2023/09/09 05:58:36;;;;;;;;;;;;;;;20.35;65.12;101392.91;4172887;28;20456;-64
2023/09/09 06:00:39;;;;;;;;;;;;;;;20.37;64.77;101389.94;4173058;28;20011;-63
2023/09/09 06:02:41;;;;;;;;;;;;;;;20.43;64.95;101391.75;4173257;28;20028;-64
2023/09/09 06:04:45;;;;;;;;;;;;;;;20.47;64.89;101392.97;4171184;28;20027;-64
2023/09/09 06:06:48;;;;;;;;;;;;;;;20.50;64.62;101387.03;4173080;28;20036;-64
2023/09/09 06:08:50;;;;;;;;;;;;;;;20.55;64.78;101394.56;4170270;28;20011;-64
2023/09/09 06:10:56;;;;;;;;;;;;;;;20.58;64.68;101397.72;4171746;28;20027;-64
2023/09/09 06:12:58;;;;;;;;;;;;;;;20.60;64.82;101394.75;4187597;28;20015;-65
2023/09/09 06:15:01;;;;;;;;;;;;;;;20.62;64.54;101393.44;4188217;28;20026;-65
2023/09/09 06:17:04;;;;;;;;;;;;;;;20.65;64.33;101397.69;4173386;28;20033;-64
2023/09/09 06:19:07;;;;;;;;;;;;;;;20.69;64.48;101394.25;4171162;28;20435;-63
2023/09/09 06:21:08;;;;;;;;;;;;;;;20.71;64.41;101394.03;4174237;28;20044;-66
2023/09/09 06:23:11;;;;;;;;;;;;;;;20.75;64.37;101397.13;4174909;28;20001;-63
2023/09/09 06:25:13;;;;;;;;;;;;;;;20.79;64.06;101401.94;4172851;28;19983;-63
2023/09/09 06:27:16;;;;;;;;;;;;;;;20.83;63.78;101408.66;4174533;28;20016;-64
2023/09/09 06:29:17;;;;;;;;;;;;;;;20.87;63.83;101411.78;4177894;28;20385;-65
2023/09/09 06:31:19;;;;;;;;;;;;;;;20.91;63.74;101410.25;4170795;28;20027;-65
2023/09/09 06:33:22;;;;;;;;;;;;;;;20.95;63.76;101405.97;4172446;28;20403;-65
2023/09/09 06:35:24;;;;;;;;;;;;;;;20.98;63.55;101412.91;4171649;28;19935;-65
2023/09/09 06:37:26;;;;;;;;;;;;;;;20.99;63.70;101415.44;4173051;28;20446;-65
2023/09/09 06:39:28;;;;;;;;;;;;;;;21.04;63.47;101415.56;4172375;28;19951;-64
2023/09/09 06:41:33;;;;;;;;;;;;;;;21.09;63.14;101417.63;4173342;28;19960;-65
2023/09/09 06:43:35;;;;;;;;;;;;;;;21.14;63.42;101414.19;4173244;28;20027;-65
2023/09/09 06:45:36;;;;;;;;;;;;;;;21.16;63.02;101418.41;4172061;28;20056;-65
2023/09/09 06:47:38;;;;;;;;;;;;;;;21.21;62.71;101417.69;4172790;28;19967;-66
2023/09/09 06:49:44;;;;;;;;;;;;;;;21.23;62.79;101421.88;4184901;28;20339;-65
2023/09/09 06:51:55;;;;;;;;;;;;;;;21.27;62.77;101416.78;4172336;28;19929;-64
2023/09/09 06:53:57;;;;;;;;;;;;;;;21.28;62.99;101415.69;4172281;28;20454;-64
2023/09/09 06:55:59;;;;;;;;;;;;;;;21.28;62.43;101412.94;4171936;28;20020;-66
2023/09/09 06:58:01;;;;;;;;;;;;;;;21.32;62.52;101416.91;4176595;28;20614;-64
2023/09/09 07:00:04;;;;;;;;;;;;;;;21.36;62.29;101414.53;4173744;28;20445;-67
2023/09/09 07:02:06;;;;;;;;;;;;;;;21.40;62.36;101413.00;4172092;28;20020;-65
2023/09/09 07:04:08;;;;;;;;;;;;;;;21.45;62.41;101415.06;4172453;28;19992;-65
2023/09/09 07:06:11;;;;;;;;;;;;;;;21.47;62.13;101416.47;4172699;28;20016;-64
2023/09/09 07:08:14;;;;;;;;;;;;;;;21.50;62.43;101415.22;4172641;28;20434;-65
2023/09/09 07:10:16;;;;;;;;;;;;;;;21.49;61.98;101416.28;4172224;28;20369;-65
2023/09/09 07:12:18;;;;;;;;;;;;;;;21.51;62.08;101419.66;4172177;28;20017;-65
2023/09/09 07:14:20;;;;;;;;;;;;;;;21.56;62.05;101423.34;4170986;28;20051;-65
2023/09/09 07:16:22;;;;;;;;;;;;;;;21.60;61.79;101424.56;4178412;28;20016;-65
2023/09/09 07:18:25;;;;;;;;;;;;;;;21.63;61.83;101412.28;4171495;28;20040;-64
2023/09/09 07:20:27;;;;;;;;;;;;;;;21.66;61.63;101414.56;4171789;28;20593;-65
2023/09/09 07:22:30;;;;;;;;;;;;;;;21.69;61.71;101410.50;4172122;28;20404;-62
2023/09/09 07:24:32;;;;;;;;;;;;;;;21.72;61.37;101421.00;4171681;28;20032;-64
2023/09/09 07:26:34;;;;;;;;;;;;;;;21.76;61.27;101416.72;4172513;28;20438;-64
2023/09/09 07:28:36;;;;;;;;;;;;;;;21.79;61.13;101408.00;4171702;28;20035;-64
2023/09/09 07:30:38;;;;;;;;;;;;;;;21.83;61.06;101408.38;4171338;28;20020;-64
2023/09/09 07:32:40;;;;;;;;;;;;;;;21.85;60.91;101412.56;4172465;28;20303;-63
2023/09/09 07:34:42;;;;;;;;;;;;;;;21.90;61.34;101415.44;4171938;28;20430;-63
2023/09/09 07:36:44;;;;;;;;;;;;;;;21.94;61.11;101407.53;4172591;28;20071;-63
2023/09/09 07:38:48;;;;;;;;;;;;;;;21.95;60.98;101407.31;4171247;28;20015;-62
2023/09/09 07:40:54;;;;;;;;;;;;;;;22.00;61.09;101405.78;4172020;28;20015;-62
2023/09/09 07:42:56;;;;;;;;;;;;;;;22.03;60.47;101411.63;4171009;28;20029;-63
2023/09/09 07:44:58;;;;;;;;;;;;;;;;;;4171034;28;20024;-64
2023/09/09 07:47:00;;;;;;;;;;;;;;;22.11;60.04;101410.44;4171914;28;20012;-66
2023/09/09 07:49:02;;;;;;;;;;;;;;;22.15;59.96;101408.91;4171202;28;20029;-66
2023/09/09 07:51:04;;;;;;;;;;;;;;;22.19;59.51;101410.09;4172635;28;20020;-64
2023/09/09 07:53:07;;;;;;;;;;;;;;;22.22;59.39;101412.34;4172928;28;20024;-64
2023/09/09 07:55:11;;;;;;;;;;;;;;;22.25;59.02;101411.88;4171671;28;20007;-64
2023/09/09 07:57:14;;;;;;;;;;;;;;;22.29;59.12;101413.09;4171094;28;20451;-66
2023/09/09 07:59:17;;;;;;;;;;;;;;;22.36;59.32;101412.16;4171223;28;19936;-63
2023/09/09 08:01:19;;;;;;;;;;;;;;;22.39;59.22;101406.19;4170937;28;19929;-66
2023/09/09 08:03:21;;;;;;;;;;;;;;;22.43;59.03;101415.63;4171022;28;20003;-66
2023/09/09 08:05:26;;;;;;;;;;;;;;;22.47;58.86;101414.06;4171667;28;19929;-67
2023/09/09 08:07:28;;;;;;;;;;;;;;;22.53;58.93;101406.78;4169986;28;20024;-65
2023/09/09 08:09:31;;;;;;;;;;;;;;;22.56;58.63;101412.63;4171261;28;20471;-66
2023/09/09 08:11:34;;;;;;;;;;;;;;;22.60;58.54;101411.06;4169581;28;20024;-65
2023/09/09 08:13:36;;;;;;;;;;;;;;;22.65;58.76;101407.59;4152854;28;19949;-64
2023/09/09 08:15:38;;;;;;;;;;;;;;;22.70;58.50;101404.97;4170479;28;20020;-64
2023/09/09 08:17:40;;;;;;;;;;;;;;;22.74;58.02;101413.56;4171395;28;20023;-64
2023/09/09 08:19:43;;;;;;;;;;;;;;;22.78;58.14;101412.84;4171114;28;20011;-64
2023/09/09 08:21:45;;;;;;;;;;;;;;;22.83;58.03;101412.09;4170991;28;19925;-64
2023/09/09 08:23:47;;;;;;;;;;;;;;;22.87;58.24;101413.31;4171843;28;20016;-65
2023/09/09 08:25:49;;;;;;;;;;;;;;;22.92;58.00;101415.34;4172141;28;20469;-64
2023/09/09 08:27:51;;;;;;;;;;;;;;;22.96;57.75;101416.50;4186300;28;20023;-64
2023/09/09 08:29:53;;;;;;;;;;;;;;;22.99;57.51;101413.25;4175788;28;20028;-64
2023/09/09 08:31:55;;;;;;;;;;;;;;;23.02;57.80;101415.53;4169410;28;20055;-65
2023/09/09 08:33:58;;;;;;;;;;;;;;;23.09;57.56;101413.50;4171148;28;20015;-64
2023/09/09 08:36:00;;;;;;;;;;;;;;;23.13;57.39;101417.44;4171476;28;20303;-65
2023/09/09 08:38:02;;;;;;;;;;;;;;;23.17;57.12;101415.03;4170861;28;20019;-64
2023/09/09 08:40:04;;;;;;;;;;;;;;;23.21;57.09;101416.22;4172113;28;20036;-63
2023/09/09 08:42:08;;;;;;;;;;;;;;;23.27;56.80;101414.41;4170445;28;20030;-64
2023/09/09 08:44:13;;;;;;;;;;;;;;;23.32;56.64;101420.88;4171441;28;20016;-63
2023/09/09 08:46:17;;;;;;;;;;;;;;;23.37;56.64;101429.22;4171267;28;19925;-64
2023/09/09 08:48:20;;;;;;;;;;;;;;;23.43;56.45;101423.81;4171399;28;20024;-64
2023/09/09 08:50:24;;;;;;;;;;;;;;;23.47;55.95;101423.06;4153201;28;20024;-65
2023/09/09 08:52:27;;;;;;;;;;;;;;;23.50;55.94;101422.56;4170971;28;20352;-64
2023/09/09 08:54:29;;;;;;;;;;;;;;;23.53;55.81;101424.00;4171424;28;20020;-65
2023/09/09 08:56:31;;;;;;;;;;;;;;;23.58;55.70;101426.84;4170524;28;20044;-64
2023/09/09 08:58:33;;;;;;;;;;;;;;;23.62;55.32;101419.75;4170801;28;20484;-65
2023/09/09 09:00:37;;;;;;;;;;;;;;;23.65;55.39;101430.28;4170431;28;20375;-65
2023/09/09 09:02:39;;;;;;;;;;;;;;;23.69;55.02;101425.13;4170063;28;20383;-64
2023/09/09 09:04:41;;;;;;;;;;;;;;;23.72;54.82;101428.19;4170659;28;20043;-65
2023/09/09 09:06:43;;;;;;;;;;;;;;;23.75;54.89;101424.94;4170768;28;19924;-66
2023/09/09 09:08:45;;;;;;;;;;;;;;;23.78;54.76;101426.38;4170753;28;20463;-65
2023/09/09 09:10:47;;;;;;;;;;;;;;;23.82;54.82;101421.19;4170229;28;20023;-64
2023/09/09 09:12:50;;;;;;;;;;;;;;;23.83;54.66;101412.66;4171381;28;20028;-65
2023/09/09 09:15:01;;;;;;;;;;;;;;;23.87;54.33;101416.66;4170571;28;20367;-65
2023/09/09 09:17:05;;;;;;;;;;;;;;;23.90;54.33;101415.28;4171242;28;20020;-65
2023/09/09 09:19:07;;;;;;;;;;;;;;;23.91;54.37;101416.97;4185458;28;19925;-67
2023/09/09 09:21:09;;;;;;;;;;;;;;;23.95;54.04;101412.63;4170459;28;20016;-65
2023/09/09 09:23:13;;;;;;;;;;;;;;;23.97;54.02;101406.88;4171375;28;20423;-64
2023/09/09 09:25:17;;;;;;;;;;;;;;;23.99;54.30;101411.03;4168940;28;19948;-64
2023/09/09 09:27:19;;;;;;;;;;;;;;;24.02;53.95;101404.19;4171821;28;20403;-64
2023/09/09 09:29:21;;;;;;;;;;;;;;;24.05;54.21;101415.56;4173982;28;20031;-65
2023/09/09 09:31:23;;;;;;;;;;;;;;;24.06;53.76;101406.19;4172828;28;20024;-65
2023/09/09 09:33:26;;;;;;;;;;;;;;;24.08;53.90;101398.50;4172234;28;20033;-63
2023/09/09 09:35:29;;;;;;;;;;;;;;;24.09;53.96;101397.41;4172581;28;20394;-64
2023/09/09 09:37:30;;;;;;;;;;;;;;;24.11;53.58;101391.66;4173043;28;20004;-64
2023/09/09 09:39:35;;;;;;;;;;;;;;;24.14;53.67;101391.16;4173946;28;19939;-66
2023/09/09 09:41:39;;;;;;;;;;;;;;;24.17;53.72;101392.53;4170060;28;20501;-65
2023/09/09 09:43:41;;;;;;;;;;;;;;;24.21;53.37;101388.19;4172746;28;20035;-64
2023/09/09 09:45:43;;;;;;;;;;;;;;;24.22;53.30;101392.66;4172850;28;20036;-65
2023/09/09 09:47:46;;;;;;;;;;;;;;;24.23;53.38;101389.63;4172670;28;19929;-68
2023/09/09 09:49:51;;;;;;;;;;;;;;;24.25;53.25;101392.13;4172829;28;20031;-68
2023/09/09 09:51:52;;;;;;;;;;;;;;;24.26;53.11;101389.13;4172762;28;20000;-67
2023/09/09 09:53:54;;;;;;;;;;;;;;;24.28;53.37;101391.63;4172984;28;19925;-69
2023/09/09 09:55:55;;;;;;;;;;;;;;;24.29;53.09;101380.34;4179760;28;20027;-69
2023/09/09 09:57:59;;;;;;;;;;;;;;;24.32;53.04;101380.91;4173098;28;20023;-69
2023/09/09 10:00:00;;;;;;;;;;;;;;;24.34;52.78;101384.25;4173197;28;20020;-67
2023/09/09 10:02:03;;;;;;;;;;;;;;;24.35;52.69;101378.47;4173391;28;20024;-63
2023/09/09 10:04:05;;;;;;;;;;;;;;;24.40;52.74;101375.78;4172972;28;19925;-66
2023/09/09 10:06:08;;;;;;;;;;;;;;;24.43;52.53;101371.69;4177947;28;20012;-66
2023/09/09 10:08:13;;;;;;;;;;;;;;;24.44;52.64;101373.34;4174234;28;20378;-66
2023/09/09 10:10:17;;;;;;;;;;;;;;;24.45;52.00;101366.72;4173226;28;19929;-65
2023/09/09 10:12:19;;;;;;;;;;;;;;;24.48;51.99;101377.25;4173892;28;20434;-66
2023/09/09 10:14:22;;;;;;;;;;;;;;;24.49;52.01;101367.91;4172061;28;19963;-68
2023/09/09 10:16:26;;;;;;;;;;;;;;;24.51;52.18;101354.66;4173287;28;20019;-69
2023/09/09 10:18:28;;;;;;;;;;;;;;;24.53;51.73;101366.31;4162648;28;20031;-68
2023/09/09 10:20:30;;;;;;;;;;;;;;;24.54;51.65;101367.97;4172444;28;20442;-68
2023/09/09 10:22:34;;;;;;;;;;;;;;;24.55;51.62;101361.34;4172633;28;20048;-67
2023/09/09 10:24:36;;;;;;;;;;;;;;;24.57;51.65;101363.91;4172679;28;20346;-67
2023/09/09 10:26:37;;;;;;;;;;;;;;;24.59;51.01;101364.47;4174035;28;20084;-68
2023/09/09 10:28:39;;;;;;;;;;;;;;;24.61;51.39;101360.38;4173528;28;20023;-68
2023/09/09 10:30:41;;;;;;;;;;;;;;;24.63;51.14;101366.47;4173157;28;20039;-67